KPHD/PHD METAR and TAF weather

Enter ICAO airport designator
Station Type Date Time Source
KPHD METAR 2021/03/05 18:53 UTC NOAA

KPHD 051853Z AUTO 31015G21KT 10SM CLR 02/M08 A3019 RMK AO2 SLP236 T00221083


Station Type Date Time Source
KPHD Decoded METAR 2021/03/05 18:53 UTC NOAA

NEW PHILADELPHIA CLEVER FLD, OH, United States (KPHD) 40-28N 81-25W 272M
Mar 05, 2021 - 01:53 PM EST / 2021.03.05 1853 UTC
Wind: from the NW (310 degrees) at 17 MPH (15 KT) gusting to 24 MPH (21 KT):0
Visibility: 10 mile(s):0
Sky conditions: clear
Temperature: 36.0 F (2.2 C)
Dew Point: 17.1 F (-8.3 C)
Relative Humidity: 45%
Pressure (altimeter): 30.19 in. Hg (1022 hPa)
ob: KPHD 051853Z AUTO 31015G21KT 10SM CLR 02/M08 A3019 RMK AO2 SLP236 T00221083
cycle: 19

Station Type Date Time Source
KPHD TAF UTC NOAA

Error!

Example: see airport list